Kantner, PA (15548)

1:16 AM EDT on August 20, 2014 (GMT -0400)
Ashtola | Change Station
CLOSE
Current Station
Personal Weather Station
Location: Windber, PA
Elevation: 2085 ft
Nearby Weather Stations

Elev 2085 ft 40.20 °N, 78.80 °W | Updated 3 minutes ago

Clear
Clear
64.8 °F
Feels Like 64.8 °F
N
0.0
Wind Variable Wind from SE
Gusts 0.0 mph

Today
High -- | Low -- °F
--% Chance of Precip.
Yesterday
High -- | Low -- °F
Precip. -- in
6:31 AM 8:05 PM
Waning Crescent, 24% visible
Pressure 29.94 in
Visibility 6.0 miles
Clouds Clear
Dew Point 64 °F
Humidity 99%
Rainfall 0.00 in
Snow Depth Not available.
UV 0 out of 12
Pollen 9.00 out of 12
Ozone Good
PM2.5 Moderate
Flu Activity Not available.
METAR KJST 200454Z AUTO 17006KT 6SM BR CLR 19/18 A2997 RMK AO2 SLP136 T01940178 402440172

More Conditions Fewer Conditions

Pressure 29.94 in
Visibility 6.0 miles
Clouds Clear
Dew Point 64 °F
Humidity 99%
Rainfall 0.00 in
Snow Depth Not available.
UV 0 out of 12
Pollen 9.00 out of 12
Ozone Good
PM2.5 Moderate
Flu Activity Not available.
METAR KJST 200454Z AUTO 17006KT 6SM BR CLR 19/18 A2997 RMK AO2 SLP136 T01940178 402440172

More Conditions Fewer Conditions

Nowcast | as of 10:58 PM EDT on August 19, 2014

Isolated showers will be across the Laurel Highlands and the south central mountains through 1 am. The showers are moving northeast at 25 mph.

×

10-Day Weather Forecast

Almanac

Astronomy

Aug. 20, 2014 Rise Set
Actual Time 6:31 AM EDT 8:05 PM EDT
Civil Twilight 6:03 AM EDT 8:34 PM EDT
Nautical Twilight 5:28 AM EDT 9:08 PM EDT
Astronomical Twilight 4:51 AM EDT 9:45 PM EDT
Moon 2:10 AM EDT 4:49 PM EDT
Length of Visible Light 14h 30m
Length of Day
13h 33m
Tomorrow will be 2m 25s shorter.
Waning Crescent, 24% of the Moon is Illuminated
Today
Waning Crescent
Aug 25
New
Sep 2
First Quarter
Sep 8
Full
Sep 15
Last Quarter

Today's Extremes

State Highs State Lows

Community

WunderPhotos

Upload Photos

1,745,592 photos uploaded!

Nearby

Air Quality

  Air Quality AQ Index Pollutant
Yesterday Moderate
PM2.5
Yesterday Good
OZONE
Current Moderate
PM2.5
Current Good
OZONE
Tuesday Moderate
PM2.5
Tuesday Good
OZONE
Wednesday Moderate
PM2.5
Wednesday Good
OZONE
Thursday Moderate
PM2.5
Thursday Good
OZONE

Snow Depth

Station Depth Elevation
No new snow has been reported.

Earthquake Activity

City Distance Mag. Time & Date
No recent earthquake activity has been reported nearby.
Minimum magnitude displayed is 2.5.

Coastal Water Temperatures

Place Temperature
No Stations Reporting

Nearby Weather Stations